Time;durP1;ratioP1;P1;durP2;ratioP2;P2;SDS_P1;SDS_P2;PMS_P1;PMS_P2;Temp;Humidity;BMP_temperature;BMP_pressure;BME280_temperature;BME280_humidity;BME280_pressure;Samples;Min_cycle;Max_cycle;Signal;HPM_P1;HPM_P2
2022/05/31 00:01:54;;;;;;;1.67;1.57;;;;;;;;;;4944323;28;20641;-27
2022/05/31 00:04:21;;;;;;;2.00;1.57;;;;;;;;;;4945301;29;20581;-29
2022/05/31 00:06:48;;;;;;;1.60;1.50;;;;;;;;;;4953656;28;20236;-30
2022/05/31 00:09:17;;;;;;;1.60;1.50;;;;;;;;;;4948057;29;20225;-32
2022/05/31 00:11:44;;;;;;;1.60;1.50;;;;;;;;;;4939712;29;20211;-33
2022/05/31 00:14:12;;;;;;;2.70;1.53;;;;;;;;;;4936656;29;20203;-30
2022/05/31 00:16:39;;;;;;;1.67;1.57;;;;;;;;;;4940416;28;20234;-32
2022/05/31 00:19:07;;;;;;;2.50;1.90;;;;;;;;;;4940885;29;20213;-32
2022/05/31 00:21:39;;;;;;;2.10;1.90;;;;;;;;;;4933340;29;20209;-31
2022/05/31 00:24:07;;;;;;;1.87;1.70;;;;;;;;;;4931818;29;20237;-30
2022/05/31 00:26:35;;;;;;;1.70;1.60;;;;;;;;;;4932369;29;20603;-31
2022/05/31 00:29:02;;;;;;;3.63;1.70;;;;;;;;;;4950641;28;20214;-33
2022/05/31 00:31:30;;;;;;;2.47;1.57;;;;;;;;;;4943276;29;20233;-29
2022/05/31 00:33:57;;;;;;;1.73;1.40;;;;;;;;;;4942107;29;20463;-30
2022/05/31 00:36:24;;;;;;;1.70;1.60;;;;;;;;;;4947495;28;20229;-30
2022/05/31 00:38:52;;;;;;;1.60;1.50;;;;;;;;;;4951833;29;20217;-32
2022/05/31 00:41:25;;;;;;;1.87;1.70;;;;;;;;;;4943368;29;20550;-29
2022/05/31 00:43:57;;;;;;;1.30;1.20;;;;;;;;;;4948044;29;20206;-31
2022/05/31 00:46:25;;;;;;;2.13;1.63;;;;;;;;;;4937720;29;20233;-27
2022/05/31 00:48:56;;;;;;;1.77;1.67;;;;;;;;;;4937003;29;20225;-32
2022/05/31 00:51:24;;;;;;;2.13;1.60;;;;;;;;;;4953177;29;20422;-30
2022/05/31 00:53:54;;;;;;;1.83;1.73;;;;;;;;;;4955379;29;20205;-32
2022/05/31 00:56:23;;;;;;;1.50;1.40;;;;;;;;;;4940702;29;20344;-31
2022/05/31 00:58:54;;;;;;;1.90;1.53;;;;;;;;;;4943694;29;20206;-31
2022/05/31 01:01:22;;;;;;;2.50;1.37;;;;;;;;;;4939997;29;20202;-33
2022/05/31 01:03:49;;;;;;;1.60;1.50;;;;;;;;;;4951991;28;20221;-31
2022/05/31 01:06:16;;;;;;;2.30;2.10;;;;;;;;;;4942824;28;20241;-33
2022/05/31 01:08:45;;;;;;;4.70;1.70;;;;;;;;;;4930518;29;20221;-32
2022/05/31 01:11:14;;;;;;;1.30;1.20;;;;;;;;;;4942799;28;20206;-32
2022/05/31 01:13:42;;;;;;;2.77;1.83;;;;;;;;;;4939641;29;20269;-32
2022/05/31 01:16:10;;;;;;;2.00;1.77;;;;;;;;;;4932708;28;20240;-32
2022/05/31 01:18:39;;;;;;;2.00;1.40;;;;;;;;;;4940610;29;20215;-29
2022/05/31 01:21:08;;;;;;;1.83;1.73;;;;;;;;;;4950696;29;20213;-29
2022/05/31 01:23:38;;;;;;;4.20;1.70;;;;;;;;;;4951020;29;20307;-30
2022/05/31 01:26:07;;;;;;;1.83;1.70;;;;;;;;;;4935419;29;20260;-32
2022/05/31 01:28:39;;;;;;;2.57;1.93;;;;;;;;;;4947478;29;20213;-30
2022/05/31 01:31:09;;;;;;;1.70;1.57;;;;;;;;;;4948741;29;20233;-29
2022/05/31 01:33:39;;;;;;;1.87;1.77;;;;;;;;;;4946097;29;20240;-29
2022/05/31 01:36:09;;;;;;;1.83;1.57;;;;;;;;;;4935353;29;20240;-33
2022/05/31 01:38:39;;;;;;;2.13;1.50;;;;;;;;;;4952951;29;20209;-32
2022/05/31 01:41:09;;;;;;;2.03;1.83;;;;;;;;;;4933471;29;20660;-30
2022/05/31 01:43:37;;;;;;;1.63;1.50;;;;;;;;;;4950665;29;20209;-30
2022/05/31 01:46:07;;;;;;;2.03;1.60;;;;;;;;;;4935196;29;20218;-33
2022/05/31 01:48:35;;;;;;;2.00;1.60;;;;;;;;;;4941043;29;20225;-32
2022/05/31 01:51:03;;;;;;;1.40;1.30;;;;;;;;;;4954497;29;20251;-28
2022/05/31 01:53:31;;;;;;;1.63;1.50;;;;;;;;;;4951301;29;20320;-32
2022/05/31 01:55:59;;;;;;;2.40;1.63;;;;;;;;;;4934728;29;20233;-32
2022/05/31 01:58:33;;;;;;;1.67;1.57;;;;;;;;;;4942314;29;20216;-30
2022/05/31 02:01:02;;;;;;;1.73;1.63;;;;;;;;;;4947440;29;20205;-28
2022/05/31 02:03:31;;;;;;;1.80;1.70;;;;;;;;;;4940663;29;20572;-29
2022/05/31 02:05:59;;;;;;;1.80;1.70;;;;;;;;;;4942661;29;20665;-33
2022/05/31 02:08:29;;;;;;;1.40;1.30;;;;;;;;;;4934906;29;20351;-32
2022/05/31 02:10:58;;;;;;;1.60;1.47;;;;;;;;;;4942453;29;20225;-33
2022/05/31 02:13:26;;;;;;;1.77;1.60;;;;;;;;;;4942379;29;20217;-32
2022/05/31 02:15:54;;;;;;;2.57;1.87;;;;;;;;;;4943160;29;20254;-30
2022/05/31 02:18:24;;;;;;;2.33;2.13;;;;;;;;;;4940930;29;20209;-32
2022/05/31 02:20:51;;;;;;;1.83;1.70;;;;;;;;;;4942943;29;20198;-30
2022/05/31 02:23:18;;;;;;;2.03;1.83;;;;;;;;;;4934647;29;20213;-29
2022/05/31 02:25:45;;;;;;;1.83;1.73;;;;;;;;;;4937396;29;20234;-31
2022/05/31 02:28:14;;;;;;;2.63;2.00;;;;;;;;;;4951810;29;20591;-32
2022/05/31 02:30:41;;;;;;;1.90;1.80;;;;;;;;;;4935186;29;20222;-29
2022/05/31 02:33:08;;;;;;;1.90;1.80;;;;;;;;;;4939901;29;20213;-28
2022/05/31 02:35:35;;;;;;;2.93;1.90;;;;;;;;;;4933789;29;20221;-31
2022/05/31 02:38:02;;;;;;;2.53;1.60;;;;;;;;;;4934661;29;20666;-31
2022/05/31 02:40:29;;;;;;;1.93;1.83;;;;;;;;;;4935066;29;20222;-31
2022/05/31 02:42:56;;;;;;;1.97;1.70;;;;;;;;;;4941109;29;20210;-31
2022/05/31 02:45:25;;;;;;;2.33;1.73;;;;;;;;;;4945326;29;20573;-32
2022/05/31 02:47:52;;;;;;;5.17;2.33;;;;;;;;;;4935234;29;20217;-32
2022/05/31 02:50:19;;;;;;;1.70;1.60;;;;;;;;;;4933969;29;20222;-33
2022/05/31 02:52:46;;;;;;;1.50;1.40;;;;;;;;;;4934448;29;20618;-33
2022/05/31 02:55:14;;;;;;;2.27;1.80;;;;;;;;;;4938829;29;20218;-33
2022/05/31 02:57:41;;;;;;;2.57;2.00;;;;;;;;;;4943434;29;20309;-30
2022/05/31 03:00:10;;;;;;;1.80;1.70;;;;;;;;;;4952724;29;20703;-29
2022/05/31 03:02:39;;;;;;;2.40;1.80;;;;;;;;;;4941642;29;20306;-32
2022/05/31 03:05:06;;;;;;;2.13;1.60;;;;;;;;;;4952803;29;20213;-28
2022/05/31 03:07:33;;;;;;;1.60;1.50;;;;;;;;;;4953120;28;20300;-32
2022/05/31 03:10:00;;;;;;;2.03;1.67;;;;;;;;;;4939521;29;20225;-30
2022/05/31 03:12:29;;;;;;;2.93;1.43;;;;;;;;;;4940916;29;20209;-33
2022/05/31 03:14:58;;;;;;;2.43;1.80;;;;;;;;;;4952701;29;20466;-35
2022/05/31 03:17:27;;;;;;;1.77;1.67;;;;;;;;;;4934716;29;20240;-31
2022/05/31 03:19:58;;;;;;;2.23;1.60;;;;;;;;;;4941220;29;20198;-29
2022/05/31 03:22:27;;;;;;;1.97;1.67;;;;;;;;;;4944886;29;20225;-30
2022/05/31 03:24:56;;;;;;;3.00;1.70;;;;;;;;;;4944248;29;20566;-29
2022/05/31 03:29:53;;;;;;;1.60;1.50;;;;;;;;;;4981636;28;20366;-36
2022/05/31 03:32:22;;;;;;;1.83;1.70;;;;;;;;;;4980181;28;20211;-41
2022/05/31 03:34:49;;;;;;;1.87;1.43;;;;;;;;;;4974655;28;20211;-36
2022/05/31 03:37:18;;;;;;;1.53;1.43;;;;;;;;;;4994177;28;20430;-38
2022/05/31 03:39:45;;;;;;;1.70;1.60;;;;;;;;;;4980952;28;20312;-36
2022/05/31 03:42:12;;;;;;;2.23;1.63;;;;;;;;;;4987172;28;20210;-35
2022/05/31 03:44:39;;;;;;;1.87;1.70;;;;;;;;;;4993264;28;20215;-37
2022/05/31 03:47:07;;;;;;;1.60;1.50;;;;;;;;;;4978651;28;20228;-40
2022/05/31 03:49:34;;;;;;;1.87;1.57;;;;;;;;;;4991917;28;20212;-36
2022/05/31 03:52:01;;;;;;;1.40;1.30;;;;;;;;;;4993308;28;20204;-33
2022/05/31 03:54:30;;;;;;;1.70;1.37;;;;;;;;;;4990188;28;20212;-43
2022/05/31 03:56:57;;;;;;;1.73;1.63;;;;;;;;;;4985863;28;20230;-38
2022/05/31 03:59:24;;;;;;;1.80;1.70;;;;;;;;;;4988938;28;20210;-34
2022/05/31 04:01:51;;;;;;;1.73;1.57;;;;;;;;;;4983117;28;20205;-40
2022/05/31 04:04:19;;;;;;;2.30;1.30;;;;;;;;;;4975816;28;20209;-38
2022/05/31 04:06:46;;;;;;;2.30;1.67;;;;;;;;;;4992130;28;20227;-38
2022/05/31 04:09:14;;;;;;;1.80;1.70;;;;;;;;;;4988019;28;20208;-34
2022/05/31 04:11:42;;;;;;;2.13;2.03;;;;;;;;;;4974329;28;20224;-40
2022/05/31 04:14:09;;;;;;;1.80;1.70;;;;;;;;;;4978608;28;20215;-38
2022/05/31 04:16:36;;;;;;;1.70;1.60;;;;;;;;;;4981938;28;20233;-37
2022/05/31 04:19:04;;;;;;;2.63;1.60;;;;;;;;;;4987661;28;20251;-36
2022/05/31 04:21:31;;;;;;;2.53;1.73;;;;;;;;;;4993169;28;20230;-34
2022/05/31 04:24:08;;;;;;;2.57;1.73;;;;;;;;;;4986118;28;20220;-38
2022/05/31 04:26:38;;;;;;;1.47;1.37;;;;;;;;;;4985078;28;20255;-40
2022/05/31 04:29:06;;;;;;;1.67;1.57;;;;;;;;;;4984818;28;20215;-32
2022/05/31 04:31:33;;;;;;;1.53;1.43;;;;;;;;;;4980034;28;20228;-36
2022/05/31 04:34:00;;;;;;;3.83;2.53;;;;;;;;;;4986089;28;20201;-41
2022/05/31 04:36:28;;;;;;;2.33;1.60;;;;;;;;;;4972240;28;20228;-36
2022/05/31 04:38:55;;;;;;;2.73;1.43;;;;;;;;;;4980902;28;20298;-34
2022/05/31 04:41:23;;;;;;;1.43;1.33;;;;;;;;;;4988672;28;20300;-36
2022/05/31 04:43:53;;;;;;;3.70;1.70;;;;;;;;;;4981665;28;20209;-32
2022/05/31 04:46:23;;;;;;;1.83;1.63;;;;;;;;;;4980092;28;20233;-35
2022/05/31 04:48:50;;;;;;;1.77;1.50;;;;;;;;;;4989108;28;20275;-37
2022/05/31 04:51:17;;;;;;;1.57;1.47;;;;;;;;;;4987518;28;20235;-35
2022/05/31 04:53:45;;;;;;;2.17;1.97;;;;;;;;;;4990935;28;20211;-42
2022/05/31 04:56:13;;;;;;;3.57;2.17;;;;;;;;;;4974355;28;20228;-32
2022/05/31 04:58:40;;;;;;;2.17;1.83;;;;;;;;;;4990136;28;20204;-35
2022/05/31 05:01:07;;;;;;;2.80;2.03;;;;;;;;;;4985628;28;20607;-40
2022/05/31 05:03:36;;;;;;;2.27;1.77;;;;;;;;;;4973292;28;20208;-37
2022/05/31 05:06:04;;;;;;;3.57;2.27;;;;;;;;;;4997047;28;20259;-37
2022/05/31 05:08:31;;;;;;;5.30;1.73;;;;;;;;;;4984484;28;20211;-31
2022/05/31 05:11:00;;;;;;;2.20;2.00;;;;;;;;;;4998173;28;20225;-38
2022/05/31 05:13:27;;;;;;;2.20;1.90;;;;;;;;;;4996943;28;20212;-37
2022/05/31 05:15:55;;;;;;;6.60;2.30;;;;;;;;;;4992699;28;20228;-37
2022/05/31 05:18:22;;;;;;;3.00;1.67;;;;;;;;;;4987097;28;20204;-38
2022/05/31 05:20:51;;;;;;;3.63;2.10;;;;;;;;;;4989684;28;20210;-36
2022/05/31 05:23:18;;;;;;;3.17;2.07;;;;;;;;;;4997599;28;20688;-42
2022/05/31 05:25:49;;;;;;;2.27;2.07;;;;;;;;;;4991404;28;20236;-37
2022/05/31 05:31:01;;;;;;;2.77;1.83;;;;;;;;;;4990136;28;20235;-36
2022/05/31 05:33:29;;;;;;;2.50;2.23;;;;;;;;;;4991134;28;20211;-41
2022/05/31 05:35:58;;;;;;;3.17;1.80;;;;;;;;;;4975794;28;20225;-36
2022/05/31 05:38:25;;;;;;;2.80;1.87;;;;;;;;;;4976617;28;20271;-36
2022/05/31 05:40:52;;;;;;;2.20;2.00;;;;;;;;;;4981699;28;20208;-40
2022/05/31 05:43:19;;;;;;;2.70;2.10;;;;;;;;;;4991695;28;20200;-35
2022/05/31 05:45:46;;;;;;;3.77;2.30;;;;;;;;;;4991139;28;20238;-43
2022/05/31 05:48:13;;;;;;;4.57;2.03;;;;;;;;;;4993953;28;20215;-36
2022/05/31 05:50:41;;;;;;;2.77;1.93;;;;;;;;;;4995621;28;20215;-37
2022/05/31 05:53:10;;;;;;;3.43;1.83;;;;;;;;;;4995253;28;20256;-35
2022/05/31 05:55:38;;;;;;;2.27;1.90;;;;;;;;;;4984929;28;20240;-39
2022/05/31 05:58:08;;;;;;;3.53;1.90;;;;;;;;;;4983609;28;20232;-38
2022/05/31 06:00:36;;;;;;;3.30;2.47;;;;;;;;;;4981033;28;20205;-40
2022/05/31 06:03:07;;;;;;;2.23;2.03;;;;;;;;;;4988030;28;20204;-39
2022/05/31 06:05:36;;;;;;;2.83;2.27;;;;;;;;;;4986559;28;20201;-35
2022/05/31 06:08:06;;;;;;;3.87;1.97;;;;;;;;;;4974939;28;20205;-39
2022/05/31 06:10:36;;;;;;;2.07;1.97;;;;;;;;;;4989569;28;20227;-37
2022/05/31 06:13:05;;;;;;;3.03;2.10;;;;;;;;;;4994609;28;20204;-38
2022/05/31 06:15:35;;;;;;;3.13;2.00;;;;;;;;;;4990593;28;20219;-37
2022/05/31 06:18:07;;;;;;;2.97;1.97;;;;;;;;;;4980713;28;20205;-35
2022/05/31 06:20:34;;;;;;;3.00;2.10;;;;;;;;;;4992270;28;20184;-40
2022/05/31 06:23:01;;;;;;;4.50;2.00;;;;;;;;;;4995222;28;20212;-35
2022/05/31 06:25:29;;;;;;;2.93;2.00;;;;;;;;;;4989802;28;20227;-41
2022/05/31 06:27:57;;;;;;;2.37;2.17;;;;;;;;;;4979765;28;20215;-34
2022/05/31 06:30:24;;;;;;;3.73;2.13;;;;;;;;;;4990950;28;20207;-38
2022/05/31 06:32:51;;;;;;;2.43;2.13;;;;;;;;;;4980715;28;20211;-35
2022/05/31 06:35:18;;;;;;;3.60;1.90;;;;;;;;;;4994497;28;20214;-38
2022/05/31 06:37:45;;;;;;;2.20;2.00;;;;;;;;;;4995177;28;20248;-36
2022/05/31 06:40:13;;;;;;;2.10;1.83;;;;;;;;;;4992274;28;20208;-37
2022/05/31 06:42:40;;;;;;;2.17;1.97;;;;;;;;;;4975507;28;20248;-39
2022/05/31 06:45:09;;;;;;;2.87;1.93;;;;;;;;;;4986341;28;20295;-38
2022/05/31 06:47:37;;;;;;;2.37;2.07;;;;;;;;;;4976190;28;20264;-37
2022/05/31 06:50:04;;;;;;;2.27;2.07;;;;;;;;;;4974650;28;20200;-39
2022/05/31 06:58:01;;;;;;;3.10;2.03;;;;;;;;;;4981171;28;20312;-37
2022/05/31 07:00:29;;;;;;;2.67;2.13;;;;;;;;;;4974738;28;20212;-36
2022/05/31 07:02:59;;;;;;;1.80;1.70;;;;;;;;;;4986178;28;20212;-39
2022/05/31 07:05:26;;;;;;;2.70;1.70;;;;;;;;;;4982204;28;20295;-38
2022/05/31 07:07:54;;;;;;;4.23;2.10;;;;;;;;;;4992106;28;20196;-37
2022/05/31 07:10:21;;;;;;;2.23;2.00;;;;;;;;;;4985787;28;20223;-39
2022/05/31 07:12:48;;;;;;;2.13;1.60;;;;;;;;;;4977704;28;20221;-40
2022/05/31 07:15:16;;;;;;;2.20;1.90;;;;;;;;;;4991924;28;20204;-33
2022/05/31 07:17:46;;;;;;;2.57;1.70;;;;;;;;;;4975343;28;20201;-37
2022/05/31 07:20:14;;;;;;;3.07;1.80;;;;;;;;;;4987831;28;20354;-35
2022/05/31 07:22:41;;;;;;;2.00;1.83;;;;;;;;;;4993752;28;20206;-40
2022/05/31 07:25:09;;;;;;;2.77;1.70;;;;;;;;;;4985729;28;20218;-38
2022/05/31 07:27:36;;;;;;;2.97;1.60;;;;;;;;;;4984404;28;20230;-38
2022/05/31 07:30:04;;;;;;;2.30;2.10;;;;;;;;;;4986626;28;20196;-39
2022/05/31 07:32:31;;;;;;;1.73;1.63;;;;;;;;;;4980811;28;20314;-37
2022/05/31 07:35:00;;;;;;;2.17;1.53;;;;;;;;;;4981355;28;20201;-39
2022/05/31 07:37:27;;;;;;;2.77;1.80;;;;;;;;;;4973308;28;20233;-42
2022/05/31 07:39:54;;;;;;;2.13;1.80;;;;;;;;;;4975193;28;20215;-43
2022/05/31 07:42:21;;;;;;;3.17;1.77;;;;;;;;;;4984394;28;20202;-43
2022/05/31 07:44:48;;;;;;;2.17;1.80;;;;;;;;;;4991527;28;20209;-39
2022/05/31 07:47:15;;;;;;;6.10;2.20;;;;;;;;;;4980845;28;20226;-39
2022/05/31 07:49:43;;;;;;;1.70;1.60;;;;;;;;;;4987616;28;20213;-37
2022/05/31 07:52:11;;;;;;;2.57;1.80;;;;;;;;;;4972321;28;20218;-37
2022/05/31 07:54:39;;;;;;;4.53;2.07;;;;;;;;;;4978710;28;20219;-37
2022/05/31 07:57:06;;;;;;;4.30;1.60;;;;;;;;;;4984982;28;20307;-35
2022/05/31 07:59:33;;;;;;;1.63;1.50;;;;;;;;;;4976882;28;20206;-37
2022/05/31 08:02:01;;;;;;;1.90;1.50;;;;;;;;;;4979640;28;20210;-39
2022/05/31 08:04:28;;;;;;;1.97;1.80;;;;;;;;;;4980638;28;20216;-40
2022/05/31 08:06:59;;;;;;;2.77;2.00;;;;;;;;;;4992296;28;20221;-36
2022/05/31 08:09:28;;;;;;;3.47;1.97;;;;;;;;;;4993268;28;20212;-39
2022/05/31 08:11:55;;;;;;;2.03;1.90;;;;;;;;;;4982247;28;20225;-37
2022/05/31 08:14:23;;;;;;;3.50;1.83;;;;;;;;;;4992147;28;20217;-41
2022/05/31 08:16:53;;;;;;;1.37;1.27;;;;;;;;;;4986964;28;20234;-38
2022/05/31 08:19:23;;;;;;;2.67;1.90;;;;;;;;;;4978008;28;20215;-34
2022/05/31 08:21:50;;;;;;;2.07;1.60;;;;;;;;;;4973688;28;20295;-38
2022/05/31 08:24:17;;;;;;;2.17;1.70;;;;;;;;;;4973843;28;20221;-37
2022/05/31 08:26:46;;;;;;;1.83;1.47;;;;;;;;;;4989044;28;20322;-40
2022/05/31 08:29:13;;;;;;;1.60;1.33;;;;;;;;;;4992942;28;20216;-40
2022/05/31 08:31:40;;;;;;;2.60;1.30;;;;;;;;;;4983133;28;20231;-41
2022/05/31 08:34:08;;;;;;;3.40;1.47;;;;;;;;;;4984515;28;20211;-35
2022/05/31 08:36:35;;;;;;;3.63;1.40;;;;;;;;;;4989669;28;20227;-40
2022/05/31 08:39:03;;;;;;;3.73;1.50;;;;;;;;;;4984004;28;20214;-42
2022/05/31 08:41:31;;;;;;;1.17;1.17;;;;;;;;;;4976239;28;20232;-39
2022/05/31 08:44:07;;;;;;;3.07;1.77;;;;;;;;;;4973443;28;20215;-38
2022/05/31 08:46:41;;;;;;;1.60;1.30;;;;;;;;;;4977534;28;20229;-35
2022/05/31 08:49:20;;;;;;;3.97;1.60;;;;;;;;;;4987074;28;20209;-39
2022/05/31 08:52:04;;;;;;;2.57;1.80;;;;;;;;;;4991898;28;20230;-37
2022/05/31 08:57:23;;;;;;;3.30;1.40;;;;;;;;;;4979273;28;20257;-40
2022/05/31 08:59:53;;;;;;;1.23;1.17;;;;;;;;;;4992316;28;20210;-37
2022/05/31 09:02:31;;;;;;;1.67;1.37;;;;;;;;;;4978086;28;20214;-35
2022/05/31 09:05:03;;;;;;;1.97;1.20;;;;;;;;;;4991831;28;20281;-34
2022/05/31 09:07:33;;;;;;;1.47;1.30;;;;;;;;;;4993079;28;20236;-37
2022/05/31 09:10:04;;;;;;;2.60;1.30;;;;;;;;;;4987836;28;20222;-37
2022/05/31 09:12:38;;;;;;;1.63;1.33;;;;;;;;;;4980222;28;20227;-33
2022/05/31 09:15:10;;;;;;;3.93;1.40;;;;;;;;;;4985658;28;20210;-40
2022/05/31 09:17:45;;;;;;;1.30;1.20;;;;;;;;;;4979818;28;20244;-35
2022/05/31 09:20:14;;;;;;;1.20;1.10;;;;;;;;;;4977411;28;20585;-41
2022/05/31 09:22:44;;;;;;;2.43;1.40;;;;;;;;;;4973284;28;20222;-37
2022/05/31 09:25:11;;;;;;;1.63;1.23;;;;;;;;;;4981769;28;20218;-38
2022/05/31 09:32:52;;;;;;;2.93;1.40;;;;;;;;;;4981274;28;20230;-33
2022/05/31 09:35:30;;;;;;;1.57;1.23;;;;;;;;;;4973124;28;20198;-30
2022/05/31 09:38:08;;;;;;;1.90;1.63;;;;;;;;;;4973786;28;20288;-32
2022/05/31 09:40:40;;;;;;;4.27;1.80;;;;;;;;;;4978153;28;20576;-35
2022/05/31 09:43:10;;;;;;;3.10;1.20;;;;;;;;;;4988057;28;20195;-35
2022/05/31 09:45:40;;;;;;;3.53;1.20;;;;;;;;;;4972188;28;20217;-33
2022/05/31 09:48:09;;;;;;;3.90;1.53;;;;;;;;;;4976941;28;20207;-29
2022/05/31 09:50:36;;;;;;;4.17;1.60;;;;;;;;;;4973358;28;20218;-30
2022/05/31 09:57:05;;;;;;;2.67;1.13;;;;;;;;;;4977002;28;20602;-33
2022/05/31 09:58:38;;;;;;;1.30;1.20;;;;;;;;;;4976057;28;20232;-30
2022/05/31 10:01:06;;;;;;;2.13;1.93;;;;;;;;;;4991360;28;20205;-32
2022/05/31 10:03:36;;;;;;;1.30;1.20;;;;;;;;;;4987026;28;20213;-31
2022/05/31 10:06:08;;;;;;;4.10;1.60;;;;;;;;;;4983977;28;20229;-32
2022/05/31 10:08:52;;;;;;;1.50;1.40;;;;;;;;;;4976893;28;20293;-33
2022/05/31 10:11:23;;;;;;;2.37;1.63;;;;;;;;;;4981348;28;20206;-30
2022/05/31 10:13:56;;;;;;;3.47;1.90;;;;;;;;;;4986378;28;20190;-32
2022/05/31 10:16:25;;;;;;;2.60;1.30;;;;;;;;;;4993664;28;20234;-33
2022/05/31 10:18:54;;;;;;;2.07;1.37;;;;;;;;;;4986214;28;20256;-33
2022/05/31 10:21:32;;;;;;;1.33;1.23;;;;;;;;;;4976081;28;20210;-29
2022/05/31 10:24:01;;;;;;;4.77;1.40;;;;;;;;;;4976133;28;20299;-32
2022/05/31 10:26:31;;;;;;;1.33;1.20;;;;;;;;;;4990386;28;20241;-32
2022/05/31 10:29:00;;;;;;;1.40;1.00;;;;;;;;;;4978439;28;20256;-33
2022/05/31 10:31:31;;;;;;;1.60;1.50;;;;;;;;;;4985092;28;20225;-29
2022/05/31 10:34:01;;;;;;;3.40;1.23;;;;;;;;;;4975832;28;20202;-33
2022/05/31 10:36:29;;;;;;;2.30;1.50;;;;;;;;;;4975533;28;20224;-32
2022/05/31 10:38:56;;;;;;;3.67;1.47;;;;;;;;;;4975846;28;20217;-31
2022/05/31 10:41:28;;;;;;;4.20;1.33;;;;;;;;;;4975572;28;20211;-32
2022/05/31 10:43:59;;;;;;;2.07;1.30;;;;;;;;;;4977463;28;20273;-33
2022/05/31 10:46:27;;;;;;;4.50;1.27;;;;;;;;;;4978780;28;20226;-31
2022/05/31 10:48:56;;;;;;;1.00;1.00;;;;;;;;;;4979467;28;20254;-31
2022/05/31 10:51:32;;;;;;;1.13;1.07;;;;;;;;;;4995023;28;20216;-33
2022/05/31 10:54:05;;;;;;;1.13;1.07;;;;;;;;;;4990465;28;20229;-30
2022/05/31 10:56:36;;;;;;;1.27;1.10;;;;;;;;;;4985597;28;20323;-28
2022/05/31 10:59:05;;;;;;;1.43;1.23;;;;;;;;;;4994222;28;20207;-32
2022/05/31 11:01:38;;;;;;;1.00;1.00;;;;;;;;;;4983875;28;20221;-31
2022/05/31 11:04:12;;;;;;;3.67;1.40;;;;;;;;;;4983987;28;20217;-31
2022/05/31 11:06:44;;;;;;;2.43;1.40;;;;;;;;;;4992282;28;20230;-30
2022/05/31 11:12:10;;;;;;;1.57;1.00;;;;;;;;;;4980882;28;20253;-34
2022/05/31 11:14:55;;;;;;;1.83;1.10;;;;;;;;;;4974374;28;20571;-33
2022/05/31 11:17:34;;;;;;;1.97;1.23;;;;;;;;;;4982230;28;20317;-33
2022/05/31 11:20:05;;;;;;;4.03;1.60;;;;;;;;;;4973808;28;20205;-33
2022/05/31 11:22:48;;;;;;;3.10;1.30;;;;;;;;;;4975291;28;20195;-32
2022/05/31 11:25:32;;;;;;;1.77;1.10;;;;;;;;;;4978565;28;20222;-30
2022/05/31 11:28:06;;;;;;;1.87;1.13;;;;;;;;;;4974992;28;20192;-32
2022/05/31 11:30:37;;;;;;;1.13;0.97;;;;;;;;;;4975207;28;20296;-33
2022/05/31 11:33:10;;;;;;;1.67;0.97;;;;;;;;;;4988074;28;20210;-33
2022/05/31 11:35:45;;;;;;;0.93;0.90;;;;;;;;;;4974429;28;20210;-32
2022/05/31 11:38:16;;;;;;;1.17;1.00;;;;;;;;;;4974894;28;20263;-30
2022/05/31 11:40:48;;;;;;;2.03;1.07;;;;;;;;;;4977947;28;20455;-33
2022/05/31 11:43:30;;;;;;;1.67;1.10;;;;;;;;;;4988284;28;20206;-32
2022/05/31 11:46:00;;;;;;;2.40;1.07;;;;;;;;;;4986812;28;20228;-34
2022/05/31 11:48:45;;;;;;;1.40;0.90;;;;;;;;;;4979194;28;20212;-33
2022/05/31 11:51:27;;;;;;;2.17;1.13;;;;;;;;;;4976346;28;20211;-34
2022/05/31 11:54:07;;;;;;;1.40;1.03;;;;;;;;;;4980564;28;20220;-29
2022/05/31 11:56:39;;;;;;;1.27;1.17;;;;;;;;;;4984025;28;20241;-31
2022/05/31 11:59:09;;;;;;;1.17;1.00;;;;;;;;;;4987646;28;20206;-36
2022/05/31 12:01:40;;;;;;;2.10;1.50;;;;;;;;;;4985433;28;20206;-31
2022/05/31 12:04:09;;;;;;;4.43;1.50;;;;;;;;;;4988704;28;20209;-31
2022/05/31 12:06:38;;;;;;;3.07;1.60;;;;;;;;;;4993519;28;20229;-34
2022/05/31 12:09:14;;;;;;;5.20;1.63;;;;;;;;;;4993928;28;20201;-34
2022/05/31 12:11:44;;;;;;;2.17;1.70;;;;;;;;;;4980015;28;20206;-31
2022/05/31 12:14:13;;;;;;;3.53;1.70;;;;;;;;;;4978373;28;20225;-31
2022/05/31 12:16:41;;;;;;;3.20;1.70;;;;;;;;;;4984197;28;20237;-33
2022/05/31 12:19:11;;;;;;;3.63;1.67;;;;;;;;;;4980470;28;20211;-34
2022/05/31 12:21:43;;;;;;;1.50;1.40;;;;;;;;;;4991258;28;20303;-33
2022/05/31 12:24:14;;;;;;;4.30;1.73;;;;;;;;;;4993504;28;20206;-33
2022/05/31 12:26:42;;;;;;;1.40;1.30;;;;;;;;;;4986196;28;20735;-29
2022/05/31 12:29:12;;;;;;;6.00;1.73;;;;;;;;;;4979035;28;20211;-33
2022/05/31 12:31:40;;;;;;;4.20;1.40;;;;;;;;;;4985750;28;20229;-34
2022/05/31 12:34:15;;;;;;;3.77;1.30;;;;;;;;;;4976322;28;20239;-33
2022/05/31 12:36:59;;;;;;;4.40;1.50;;;;;;;;;;4990838;28;20225;-32
2022/05/31 12:39:30;;;;;;;1.63;1.20;;;;;;;;;;4988165;28;20209;-33
2022/05/31 12:41:58;;;;;;;1.70;1.30;;;;;;;;;;4979992;28;20206;-32
2022/05/31 12:44:29;;;;;;;1.83;1.67;;;;;;;;;;4988799;28;20318;-32
2022/05/31 12:46:56;;;;;;;2.03;1.30;;;;;;;;;;4982159;28;20233;-33
2022/05/31 12:49:26;;;;;;;2.40;1.33;;;;;;;;;;4981783;28;20211;-30
2022/05/31 12:52:12;;;;;;;1.33;1.23;;;;;;;;;;4990912;28;20297;-33
2022/05/31 12:54:46;;;;;;;1.93;1.73;;;;;;;;;;4986580;28;20576;-33
2022/05/31 12:57:24;;;;;;;2.60;1.50;;;;;;;;;;4985037;28;20242;-32
2022/05/31 12:59:53;;;;;;;2.40;1.63;;;;;;;;;;4979453;28;20211;-33
2022/05/31 13:02:29;;;;;;;1.13;1.13;;;;;;;;;;4979223;28;20214;-31
2022/05/31 13:05:00;;;;;;;1.87;1.20;;;;;;;;;;4973595;28;20202;-32
2022/05/31 13:10:34;;;;;;;2.00;1.20;;;;;;;;;;4973124;28;20191;-32
2022/05/31 13:21:17;;;;;;;2.53;1.20;;;;;;;;;;4988039;28;20198;-33
2022/05/31 13:23:46;;;;;;;1.43;1.20;;;;;;;;;;4993014;28;20243;-31
2022/05/31 13:26:17;;;;;;;2.37;1.37;;;;;;;;;;4988535;28;20290;-31
2022/05/31 13:28:45;;;;;;;1.20;1.20;;;;;;;;;;4977062;28;20406;-30
2022/05/31 13:31:13;;;;;;;1.47;1.10;;;;;;;;;;4986944;28;20226;-33
2022/05/31 13:33:40;;;;;;;1.27;1.20;;;;;;;;;;4987326;28;20286;-33
2022/05/31 13:36:12;;;;;;;2.87;1.60;;;;;;;;;;4984193;28;20303;-31
2022/05/31 13:38:42;;;;;;;1.20;1.20;;;;;;;;;;4990913;28;20203;-30
2022/05/31 13:41:12;;;;;;;1.10;1.10;;;;;;;;;;4990450;28;20225;-34
2022/05/31 13:43:42;;;;;;;5.47;1.70;;;;;;;;;;4994422;28;20213;-34
2022/05/31 13:46:25;;;;;;;1.70;1.60;;;;;;;;;;4994780;28;20241;-31
2022/05/31 13:48:55;;;;;;;1.23;1.13;;;;;;;;;;4987400;28;20199;-34
2022/05/31 13:51:24;;;;;;;2.47;1.60;;;;;;;;;;4981815;28;20210;-31
2022/05/31 13:53:52;;;;;;;1.57;1.37;;;;;;;;;;4974884;28;20225;-32
2022/05/31 13:56:22;;;;;;;2.07;1.30;;;;;;;;;;4981556;28;20230;-33
2022/05/31 13:58:51;;;;;;;1.90;1.03;;;;;;;;;;4987020;28;20210;-34
2022/05/31 14:01:24;;;;;;;1.20;1.13;;;;;;;;;;4986477;28;20221;-34
2022/05/31 14:03:51;;;;;;;3.97;1.30;;;;;;;;;;4987073;28;20294;-30
2022/05/31 14:06:19;;;;;;;3.73;1.00;;;;;;;;;;4981065;28;20223;-35
2022/05/31 14:08:49;;;;;;;1.43;1.30;;;;;;;;;;4979722;28;20211;-30
2022/05/31 14:11:18;;;;;;;1.20;1.10;;;;;;;;;;4989120;28;20256;-33
2022/05/31 14:13:47;;;;;;;1.37;1.27;;;;;;;;;;4994472;28;20256;-33
2022/05/31 14:16:17;;;;;;;5.43;1.40;;;;;;;;;;4988251;28;20400;-32
2022/05/31 14:18:46;;;;;;;4.50;1.10;;;;;;;;;;4983138;28;20673;-35
2022/05/31 14:21:13;;;;;;;1.60;1.00;;;;;;;;;;4994938;28;20207;-33
2022/05/31 14:23:41;;;;;;;1.30;1.20;;;;;;;;;;4989526;28;20213;-29
2022/05/31 14:26:09;;;;;;;1.17;1.07;;;;;;;;;;4984186;28;20341;-35
2022/05/31 14:28:36;;;;;;;2.50;1.23;;;;;;;;;;4976229;28;20278;-35
2022/05/31 14:31:04;;;;;;;2.63;1.20;;;;;;;;;;4975435;28;20222;-34
2022/05/31 14:33:34;;;;;;;3.60;1.30;;;;;;;;;;4983257;28;20234;-33
2022/05/31 14:36:02;;;;;;;3.73;1.47;;;;;;;;;;4993166;28;20740;-32
2022/05/31 14:38:32;;;;;;;1.47;1.20;;;;;;;;;;4990369;28;20295;-33
2022/05/31 14:41:01;;;;;;;3.70;1.50;;;;;;;;;;4991738;28;20275;-31
2022/05/31 14:43:30;;;;;;;1.57;1.13;;;;;;;;;;4987144;28;20203;-35
2022/05/31 14:45:58;;;;;;;1.83;1.30;;;;;;;;;;4991702;28;20223;-33
2022/05/31 14:48:47;;;;;;;4.03;1.17;;;;;;;;;;4990990;28;20214;-35
2022/05/31 14:51:16;;;;;;;1.30;1.20;;;;;;;;;;4981334;28;20197;-32
2022/05/31 14:53:45;;;;;;;1.30;1.20;;;;;;;;;;4975337;28;20231;-32
2022/05/31 14:56:23;;;;;;;1.20;1.10;;;;;;;;;;4990194;28;20233;-31
2022/05/31 14:58:53;;;;;;;1.17;1.10;;;;;;;;;;4995725;28;20291;-35
2022/05/31 15:01:28;;;;;;;2.87;1.40;;;;;;;;;;4991916;28;20219;-30
2022/05/31 15:04:02;;;;;;;2.97;1.27;;;;;;;;;;4995644;28;20199;-34
2022/05/31 15:06:30;;;;;;;1.00;1.00;;;;;;;;;;4995691;28;20226;-33
2022/05/31 15:09:02;;;;;;;1.67;1.10;;;;;;;;;;4988340;28;20566;-31
2022/05/31 15:19:46;;;;;;;1.67;1.37;;;;;;;;;;4976638;28;20215;-30
2022/05/31 15:22:15;;;;;;;1.67;1.17;;;;;;;;;;4994509;28;20203;-37
2022/05/31 15:24:42;;;;;;;1.93;1.33;;;;;;;;;;4988099;28;20208;-35
2022/05/31 15:27:15;;;;;;;2.90;1.27;;;;;;;;;;4980374;28;20302;-31
2022/05/31 15:32:10;;;;;;;1.23;1.13;;;;;;;;;;4980858;28;20219;-33
2022/05/31 15:34:38;;;;;;;2.90;1.30;;;;;;;;;;4984580;28;20299;-36
2022/05/31 15:37:07;;;;;;;2.90;1.43;;;;;;;;;;4994068;28;20241;-38
2022/05/31 15:39:38;;;;;;;2.40;1.20;;;;;;;;;;4984167;28;20388;-32
2022/05/31 15:42:06;;;;;;;1.87;1.30;;;;;;;;;;4983439;28;20215;-38
2022/05/31 15:44:36;;;;;;;1.33;1.23;;;;;;;;;;4978762;28;20206;-36